Bitola, Macedonia
Current Conditions -  °F | °C
As of 2:30 PM on Tuesday 27 Jan 2015 (Local Time) from LWOH Reporting Station
Broken Clouds Broken Clouds  
Wind Chill: 40°   Ceiling: 9000
Heat Index: 43°   Visibility: 6mi
Dew Point: 32°   Wind: 5mph
Humidity: 66%   Direction: 200°SSW
Pressure: 29.8"   Gusts: NA
Location:  41.04°N, 21.34°E
Report Text: LWOH 271230Z 20004KT 9999 SCT033 BKN090 06/00 Q1009
Loading
Personal Weather Stations






























Interactive Weather Map New forecast layout! Learn more

10-Day Weather Forecast

Advertisements
Track Severe Weather on mobile